sensor_id;sensor_type;location;lat;lon;timestamp;pressure;altitude;pressure_sealevel;temperature;humidity
10618;BME280;5356;43.526;26.534;2023-04-01T00:01:31;98242.94;;;8.61;100.00
10618;BME280;5356;43.526;26.534;2023-04-01T00:03:56;98240.03;;;8.51;100.00
10618;BME280;5356;43.526;26.534;2023-04-01T00:06:21;98237.97;;;8.53;100.00
10618;BME280;5356;43.526;26.534;2023-04-01T00:08:47;98235.78;;;8.50;100.00
10618;BME280;5356;43.526;26.534;2023-04-01T00:11:14;98235.53;;;8.51;100.00
10618;BME280;5356;43.526;26.534;2023-04-01T00:13:40;98234.06;;;8.44;100.00
10618;BME280;5356;43.526;26.534;2023-04-01T00:16:07;98220.66;;;8.50;100.00
10618;BME280;5356;43.526;26.534;2023-04-01T00:18:32;98227.03;;;8.49;100.00
10618;BME280;5356;43.526;26.534;2023-04-01T00:20:58;98221.81;;;8.43;100.00
10618;BME280;5356;43.526;26.534;2023-04-01T00:23:23;98215.69;;;8.42;100.00
10618;BME280;5356;43.526;26.534;2023-04-01T00:25:49;98219.75;;;8.45;100.00
10618;BME280;5356;43.526;26.534;2023-04-01T00:28:16;98213.84;;;8.43;100.00
10618;BME280;5356;43.526;26.534;2023-04-01T00:30:41;98216.16;;;8.39;100.00
10618;BME280;5356;43.526;26.534;2023-04-01T00:33:07;98197.59;;;8.39;100.00
10618;BME280;5356;43.526;26.534;2023-04-01T00:35:32;98195.25;;;8.43;100.00
10618;BME280;5356;43.526;26.534;2023-04-01T00:37:58;98187.63;;;8.35;100.00
10618;BME280;5356;43.526;26.534;2023-04-01T00:40:37;98189.25;;;8.36;100.00
10618;BME280;5356;43.526;26.534;2023-04-01T00:43:09;98181.66;;;8.39;100.00
10618;BME280;5356;43.526;26.534;2023-04-01T00:45:46;98184.75;;;8.36;100.00
10618;BME280;5356;43.526;26.534;2023-04-01T00:48:19;98181.44;;;8.41;100.00
10618;BME280;5356;43.526;26.534;2023-04-01T00:50:54;98184.16;;;8.34;100.00
10618;BME280;5356;43.526;26.534;2023-04-01T00:53:21;98172.41;;;8.30;100.00
10618;BME280;5356;43.526;26.534;2023-04-01T00:55:58;98165.72;;;8.27;100.00
10618;BME280;5356;43.526;26.534;2023-04-01T00:58:27;98172.94;;;8.20;100.00
10618;BME280;5356;43.526;26.534;2023-04-01T01:00:55;98177.47;;;8.20;100.00
10618;BME280;5356;43.526;26.534;2023-04-01T01:03:21;98174.00;;;8.19;100.00
10618;BME280;5356;43.526;26.534;2023-04-01T01:09:05;98168.22;;;8.22;100.00
10618;BME280;5356;43.526;26.534;2023-04-01T01:17:39;98149.78;;;8.27;100.00
10618;BME280;5356;43.526;26.534;2023-04-01T01:20:14;98143.31;;;8.23;100.00
10618;BME280;5356;43.526;26.534;2023-04-01T01:25:43;98133.63;;;8.17;100.00
10618;BME280;5356;43.526;26.534;2023-04-01T01:36:29;98131.44;;;8.14;100.00
10618;BME280;5356;43.526;26.534;2023-04-01T01:38:56;98125.53;;;8.12;100.00
10618;BME280;5356;43.526;26.534;2023-04-01T01:41:23;98123.59;;;8.07;100.00
10618;BME280;5356;43.526;26.534;2023-04-01T01:43:53;98114.94;;;8.12;100.00
10618;BME280;5356;43.526;26.534;2023-04-01T01:46:23;98112.88;;;8.14;100.00
10618;BME280;5356;43.526;26.534;2023-04-01T01:48:51;98114.25;;;8.17;100.00
10618;BME280;5356;43.526;26.534;2023-04-01T01:51:19;98112.53;;;8.22;100.00
10618;BME280;5356;43.526;26.534;2023-04-01T01:53:45;98115.50;;;8.26;100.00
10618;BME280;5356;43.526;26.534;2023-04-01T01:56:12;98116.31;;;8.26;100.00
10618;BME280;5356;43.526;26.534;2023-04-01T01:58:51;98106.53;;;8.27;100.00
10618;BME280;5356;43.526;26.534;2023-04-01T02:01:22;98106.63;;;8.20;100.00
10618;BME280;5356;43.526;26.534;2023-04-01T02:03:49;98100.19;;;8.16;100.00
10618;BME280;5356;43.526;26.534;2023-04-01T02:06:18;98095.34;;;8.13;100.00
10618;BME280;5356;43.526;26.534;2023-04-01T02:11:17;98095.81;;;8.10;100.00
10618;BME280;5356;43.526;26.534;2023-04-01T02:14:01;98102.13;;;8.09;100.00
10618;BME280;5356;43.526;26.534;2023-04-01T02:16:33;98094.88;;;8.16;100.00
10618;BME280;5356;43.526;26.534;2023-04-01T02:19:01;98092.31;;;8.09;100.00
10618;BME280;5356;43.526;26.534;2023-04-01T02:21:31;98077.13;;;8.05;100.00
10618;BME280;5356;43.526;26.534;2023-04-01T02:23:59;98071.81;;;8.05;100.00
10618;BME280;5356;43.526;26.534;2023-04-01T02:26:26;98075.41;;;8.10;100.00
10618;BME280;5356;43.526;26.534;2023-04-01T02:28:53;98072.28;;;8.02;100.00
10618;BME280;5356;43.526;26.534;2023-04-01T02:31:21;98071.25;;;7.91;100.00
10618;BME280;5356;43.526;26.534;2023-04-01T02:33:47;98068.72;;;7.96;100.00
10618;BME280;5356;43.526;26.534;2023-04-01T02:36:14;98068.00;;;7.89;100.00
10618;BME280;5356;43.526;26.534;2023-04-01T02:38:42;98064.53;;;7.88;100.00
10618;BME280;5356;43.526;26.534;2023-04-01T02:41:07;98056.59;;;7.88;100.00
10618;BME280;5356;43.526;26.534;2023-04-01T02:43:33;98059.69;;;7.85;100.00
10618;BME280;5356;43.526;26.534;2023-04-01T02:45:59;98047.50;;;7.96;100.00
10618;BME280;5356;43.526;26.534;2023-04-01T02:48:24;98042.31;;;8.01;100.00
10618;BME280;5356;43.526;26.534;2023-04-01T02:50:50;98047.38;;;8.03;100.00
10618;BME280;5356;43.526;26.534;2023-04-01T02:53:16;98042.19;;;8.08;100.00
10618;BME280;5356;43.526;26.534;2023-04-01T02:55:42;98039.06;;;8.11;100.00
10618;BME280;5356;43.526;26.534;2023-04-01T02:58:07;98036.41;;;8.11;100.00
10618;BME280;5356;43.526;26.534;2023-04-01T03:00:33;98033.28;;;8.14;100.00
10618;BME280;5356;43.526;26.534;2023-04-01T03:02:58;98035.00;;;8.20;100.00
10618;BME280;5356;43.526;26.534;2023-04-01T03:05:24;98035.25;;;8.30;100.00
10618;BME280;5356;43.526;26.534;2023-04-01T03:07:49;98025.56;;;8.24;100.00
10618;BME280;5356;43.526;26.534;2023-04-01T03:10:15;98037.09;;;8.30;100.00
10618;BME280;5356;43.526;26.534;2023-04-01T03:12:40;98031.78;;;8.30;100.00
10618;BME280;5356;43.526;26.534;2023-04-01T03:15:06;98041.59;;;8.29;100.00
10618;BME280;5356;43.526;26.534;2023-04-01T03:17:32;98014.38;;;8.22;100.00
10618;BME280;5356;43.526;26.534;2023-04-01T03:19:57;98013.69;;;8.15;100.00
10618;BME280;5356;43.526;26.534;2023-04-01T03:22:23;98015.53;;;8.15;100.00
10618;BME280;5356;43.526;26.534;2023-04-01T03:24:49;98011.94;;;8.21;100.00
10618;BME280;5356;43.526;26.534;2023-04-01T03:27:14;98013.31;;;8.23;100.00
10618;BME280;5356;43.526;26.534;2023-04-01T03:29:40;98013.75;;;8.32;100.00
10618;BME280;5356;43.526;26.534;2023-04-01T03:32:06;98004.69;;;8.28;100.00
10618;BME280;5356;43.526;26.534;2023-04-01T03:34:31;98000.50;;;8.32;100.00
10618;BME280;5356;43.526;26.534;2023-04-01T03:36:57;98003.16;;;8.32;100.00
10618;BME280;5356;43.526;26.534;2023-04-01T03:39:23;97996.09;;;8.38;100.00
10618;BME280;5356;43.526;26.534;2023-04-01T03:41:48;98003.88;;;8.39;100.00
10618;BME280;5356;43.526;26.534;2023-04-01T03:44:14;97993.59;;;8.43;100.00
10618;BME280;5356;43.526;26.534;2023-04-01T03:46:39;97992.56;;;8.44;100.00
10618;BME280;5356;43.526;26.534;2023-04-01T03:49:09;98000.59;;;8.49;100.00
10618;BME280;5356;43.526;26.534;2023-04-01T03:51:41;97999.47;;;8.45;100.00
10618;BME280;5356;43.526;26.534;2023-04-01T03:54:07;98001.19;;;8.51;100.00
10618;BME280;5356;43.526;26.534;2023-04-01T03:56:33;98006.03;;;8.54;100.00
10618;BME280;5356;43.526;26.534;2023-04-01T03:59:02;98005.31;;;8.59;100.00
10618;BME280;5356;43.526;26.534;2023-04-01T04:01:28;98006.03;;;8.54;100.00
10618;BME280;5356;43.526;26.534;2023-04-01T04:03:54;98010.66;;;8.47;100.00
10618;BME280;5356;43.526;26.534;2023-04-01T04:06:20;98007.53;;;8.50;100.00
10618;BME280;5356;43.526;26.534;2023-04-01T04:08:45;98010.31;;;8.43;100.00
10618;BME280;5356;43.526;26.534;2023-04-01T04:11:11;98014.81;;;8.43;100.00
10618;BME280;5356;43.526;26.534;2023-04-01T04:13:37;98010.66;;;8.47;100.00
10618;BME280;5356;43.526;26.534;2023-04-01T04:16:03;98011.16;;;8.44;100.00
10618;BME280;5356;43.526;26.534;2023-04-01T04:18:29;98007.88;;;8.53;100.00
10618;BME280;5356;43.526;26.534;2023-04-01T04:20:54;98006.75;;;8.49;100.00
10618;BME280;5356;43.526;26.534;2023-04-01T04:23:20;97999.69;;;8.55;100.00
10618;BME280;5356;43.526;26.534;2023-04-01T04:25:57;98001.16;;;8.63;100.00
10618;BME280;5356;43.526;26.534;2023-04-01T04:28:24;98000.44;;;8.67;100.00
10618;BME280;5356;43.526;26.534;2023-04-01T04:30:50;97995.34;;;8.66;100.00
10618;BME280;5356;43.526;26.534;2023-04-01T04:33:16;97999.75;;;8.72;100.00
10618;BME280;5356;43.526;26.534;2023-04-01T04:35:41;97998.44;;;8.74;100.00
10618;BME280;5356;43.526;26.534;2023-04-01T04:38:07;97992.22;;;8.81;100.00
10618;BME280;5356;43.526;26.534;2023-04-01T04:40:32;97993.09;;;8.86;100.00
10618;BME280;5356;43.526;26.534;2023-04-01T04:42:57;98005.66;;;8.91;100.00
10618;BME280;5356;43.526;26.534;2023-04-01T04:45:23;97983.94;;;8.94;100.00
10618;BME280;5356;43.526;26.534;2023-04-01T04:47:48;97986.69;;;8.99;100.00
10618;BME280;5356;43.526;26.534;2023-04-01T04:50:14;97986.09;;;8.97;100.00
10618;BME280;5356;43.526;26.534;2023-04-01T04:52:39;97986.69;;;8.99;100.00
10618;BME280;5356;43.526;26.534;2023-04-01T04:55:05;97990.66;;;9.13;100.00
10618;BME280;5356;43.526;26.534;2023-04-01T04:57:31;97990.16;;;9.16;100.00
10618;BME280;5356;43.526;26.534;2023-04-01T04:59:56;97988.16;;;9.24;100.00
10618;BME280;5356;43.526;26.534;2023-04-01T05:02:22;97987.44;;;9.28;100.00
10618;BME280;5356;43.526;26.534;2023-04-01T05:04:47;97991.22;;;9.32;100.00
10618;BME280;5356;43.526;26.534;2023-04-01T05:07:13;97991.81;;;9.34;100.00
10618;BME280;5356;43.526;26.534;2023-04-01T05:09:38;97987.22;;;9.47;100.00
10618;BME280;5356;43.526;26.534;2023-04-01T05:12:04;97992.25;;;9.48;100.00
10618;BME280;5356;43.526;26.534;2023-04-01T05:14:29;97994.47;;;9.51;100.00
10618;BME280;5356;43.526;26.534;2023-04-01T05:16:55;97994.13;;;9.64;100.00
10618;BME280;5356;43.526;26.534;2023-04-01T05:19:21;97993.00;;;9.77;100.00
10618;BME280;5356;43.526;26.534;2023-04-01T05:21:46;97979.81;;;9.87;100.00
10618;BME280;5356;43.526;26.534;2023-04-01T05:24:12;97985.72;;;9.89;100.00
10618;BME280;5356;43.526;26.534;2023-04-01T05:26:37;97978.63;;;9.95;100.00
10618;BME280;5356;43.526;26.534;2023-04-01T05:29:04;97981.66;;;10.04;100.00
10618;BME280;5356;43.526;26.534;2023-04-01T05:31:30;97969.22;;;10.09;100.00
10618;BME280;5356;43.526;26.534;2023-04-01T05:33:55;97970.41;;;10.19;100.00
10618;BME280;5356;43.526;26.534;2023-04-01T05:36:21;97961.69;;;10.23;100.00
10618;BME280;5356;43.526;26.534;2023-04-01T05:38:47;97966.84;;;10.30;100.00
10618;BME280;5356;43.526;26.534;2023-04-01T05:41:16;97963.22;;;10.36;100.00
10618;BME280;5356;43.526;26.534;2023-04-01T05:43:42;97955.75;;;10.38;100.00
10618;BME280;5356;43.526;26.534;2023-04-01T05:46:07;97955.31;;;10.46;100.00
10618;BME280;5356;43.526;26.534;2023-04-01T05:48:34;97950.88;;;10.52;100.00
10618;BME280;5356;43.526;26.534;2023-04-01T05:51:00;97946.66;;;10.56;100.00
10618;BME280;5356;43.526;26.534;2023-04-01T05:53:26;97939.03;;;10.65;100.00
10618;BME280;5356;43.526;26.534;2023-04-01T05:55:51;97932.13;;;10.69;100.00
10618;BME280;5356;43.526;26.534;2023-04-01T05:58:17;97936.72;;;10.73;100.00
10618;BME280;5356;43.526;26.534;2023-04-01T06:00:43;97932.19;;;10.74;100.00
10618;BME280;5356;43.526;26.534;2023-04-01T06:03:08;97927.44;;;10.81;100.00
10618;BME280;5356;43.526;26.534;2023-04-01T06:05:42;97935.34;;;10.98;100.00
10618;BME280;5356;43.526;26.534;2023-04-01T06:08:13;97927.94;;;11.05;100.00
10618;BME280;5356;43.526;26.534;2023-04-01T06:11:04;97921.88;;;11.10;100.00
10618;BME280;5356;43.526;26.534;2023-04-01T06:13:58;97925.16;;;11.22;100.00
10618;BME280;5356;43.526;26.534;2023-04-01T06:56:18;97916.31;;;13.36;100.00
10618;BME280;5356;43.526;26.534;2023-04-01T07:10:55;97900.47;;;14.55;100.00
10618;BME280;5356;43.526;26.534;2023-04-01T07:23:40;97907.13;;;15.32;100.00
10618;BME280;5356;43.526;26.534;2023-04-01T07:26:43;97889.00;;;15.47;100.00
10618;BME280;5356;43.526;26.534;2023-04-01T07:29:13;97882.00;;;15.52;100.00
10618;BME280;5356;43.526;26.534;2023-04-01T07:34:40;97882.19;;;15.84;100.00
10618;BME280;5356;43.526;26.534;2023-04-01T07:37:20;97883.50;;;16.11;100.00
10618;BME280;5356;43.526;26.534;2023-04-01T07:43:34;97882.88;;;16.38;100.00
10618;BME280;5356;43.526;26.534;2023-04-01T07:49:09;97869.72;;;16.55;100.00
10618;BME280;5356;43.526;26.534;2023-04-01T07:52:05;97884.41;;;16.63;100.00
10618;BME280;5356;43.526;26.534;2023-04-01T08:00:21;97878.38;;;16.71;100.00
10618;BME280;5356;43.526;26.534;2023-04-01T08:08:32;97872.22;;;16.71;99.27
10618;BME280;5356;43.526;26.534;2023-04-01T08:17:04;97871.63;;;16.74;94.95
10618;BME280;5356;43.526;26.534;2023-04-01T08:22:23;97876.66;;;16.80;92.85
10618;BME280;5356;43.526;26.534;2023-04-01T08:25:11;97862.56;;;16.89;92.70
10618;BME280;5356;43.526;26.534;2023-04-01T08:30:41;97855.00;;;16.91;89.36
10618;BME280;5356;43.526;26.534;2023-04-01T08:33:24;97856.16;;;16.85;86.93
10618;BME280;5356;43.526;26.534;2023-04-01T08:39:32;97845.75;;;16.97;84.78
10618;BME280;5356;43.526;26.534;2023-04-01T08:42:31;97838.91;;;17.04;84.03
10618;BME280;5356;43.526;26.534;2023-04-01T09:12:05;97829.22;;;17.64;80.18
10618;BME280;5356;43.526;26.534;2023-04-01T09:31:25;97812.44;;;17.67;69.09
10618;BME280;5356;43.526;26.534;2023-04-01T09:36:54;97800.28;;;17.83;66.50
10618;BME280;5356;43.526;26.534;2023-04-01T09:44:53;97804.69;;;17.79;66.12
10618;BME280;5356;43.526;26.534;2023-04-01T10:04:31;97776.91;;;18.06;64.07
10618;BME280;5356;43.526;26.534;2023-04-01T10:07:32;97775.59;;;18.17;63.42
10618;BME280;5356;43.526;26.534;2023-04-01T10:18:48;97776.13;;;18.28;62.07
10618;BME280;5356;43.526;26.534;2023-04-01T10:30:34;97755.47;;;18.60;60.27
10618;BME280;5356;43.526;26.534;2023-04-01T10:59:23;97742.94;;;19.18;57.74
10618;BME280;5356;43.526;26.534;2023-04-01T11:25:14;97706.19;;;19.57;54.28
10618;BME280;5356;43.526;26.534;2023-04-01T11:30:22;97704.19;;;19.71;53.53
10618;BME280;5356;43.526;26.534;2023-04-01T11:44:16;97705.63;;;19.94;52.68
10618;BME280;5356;43.526;26.534;2023-04-01T11:46:52;97694.97;;;19.98;52.90
10618;BME280;5356;43.526;26.534;2023-04-01T11:52:12;97686.22;;;20.01;52.79
10618;BME280;5356;43.526;26.534;2023-04-01T11:55:02;97674.31;;;20.02;52.67
10618;BME280;5356;43.526;26.534;2023-04-01T12:06:02;97623.72;;;20.20;53.91
10618;BME280;5356;43.526;26.534;2023-04-01T12:23:57;97615.19;;;20.65;52.52
10618;BME280;5356;43.526;26.534;2023-04-01T12:26:54;97611.34;;;20.66;52.12
10618;BME280;5356;43.526;26.534;2023-04-01T12:31:42;97613.00;;;20.50;51.72
10618;BME280;5356;43.526;26.534;2023-04-01T12:34:41;97608.56;;;20.36;51.89
10618;BME280;5356;43.526;26.534;2023-04-01T12:43:31;97608.56;;;20.36;52.00
10618;BME280;5356;43.526;26.534;2023-04-01T13:10:05;97579.69;;;20.67;51.53
10618;BME280;5356;43.526;26.534;2023-04-01T13:28:56;97559.38;;;19.87;55.52
10618;BME280;5356;43.526;26.534;2023-04-01T13:34:51;97558.44;;;19.57;56.24
10618;BME280;5356;43.526;26.534;2023-04-01T13:43:31;97551.75;;;19.28;56.70
10618;BME280;5356;43.526;26.534;2023-04-01T13:57:02;97545.06;;;19.17;60.00
10618;BME280;5356;43.526;26.534;2023-04-01T14:02:18;97529.31;;;19.11;60.81
10618;BME280;5356;43.526;26.534;2023-04-01T14:05:01;97523.63;;;19.03;60.92
10618;BME280;5356;43.526;26.534;2023-04-01T14:10:31;97520.22;;;18.72;62.86
10618;BME280;5356;43.526;26.534;2023-04-01T14:16:00;97520.34;;;18.67;64.42
10618;BME280;5356;43.526;26.534;2023-04-01T14:25:21;97522.00;;;18.45;66.79
10618;BME280;5356;43.526;26.534;2023-04-01T14:27:31;97509.03;;;18.47;66.70
10618;BME280;5356;43.526;26.534;2023-04-01T14:33:33;97501.84;;;18.34;67.14
10618;BME280;5356;43.526;26.534;2023-04-01T14:42:41;97493.56;;;18.22;68.05
10618;BME280;5356;43.526;26.534;2023-04-01T14:50:49;97500.81;;;18.12;69.09
10618;BME280;5356;43.526;26.534;2023-04-01T14:53:27;97497.78;;;18.14;68.98
10618;BME280;5356;43.526;26.534;2023-04-01T14:55:58;97484.34;;;18.23;68.82
10618;BME280;5356;43.526;26.534;2023-04-01T14:58:43;97475.19;;;18.24;68.72
10618;BME280;5356;43.526;26.534;2023-04-01T15:01:22;97480.16;;;18.08;70.10
10618;BME280;5356;43.526;26.534;2023-04-01T15:12:12;97467.81;;;17.53;73.06
10618;BME280;5356;43.526;26.534;2023-04-01T15:15:10;97475.91;;;17.31;74.26
10618;BME280;5356;43.526;26.534;2023-04-01T15:18:08;97473.09;;;17.13;74.19
10618;BME280;5356;43.526;26.534;2023-04-01T15:23:56;97469.66;;;16.99;73.32
10618;BME280;5356;43.526;26.534;2023-04-01T15:47:31;97491.41;;;16.33;78.85
10618;BME280;5356;43.526;26.534;2023-04-01T15:56:51;97516.66;;;16.05;82.10
10618;BME280;5356;43.526;26.534;2023-04-01T20:08:32;97793.63;;;12.47;100.00
